sensor_id;sensor_type;location;lat;lon;timestamp;P1;durP1;ratioP1;P2;durP2;ratioP2
46429;SDS011;32131;53.454;-6.180;2023-07-30T00:02:08;7.40;;;1.35;;
46429;SDS011;32131;53.454;-6.180;2023-07-30T00:04:36;8.77;;;1.42;;
46429;SDS011;32131;53.454;-6.180;2023-07-30T00:07:09;5.10;;;0.85;;
46429;SDS011;32131;53.454;-6.180;2023-07-30T00:09:37;6.45;;;1.33;;
46429;SDS011;32131;53.454;-6.180;2023-07-30T00:12:07;9.45;;;1.75;;
46429;SDS011;32131;53.454;-6.180;2023-07-30T00:14:38;7.82;;;1.35;;
46429;SDS011;32131;53.454;-6.180;2023-07-30T00:22:10;7.68;;;1.10;;
46429;SDS011;32131;53.454;-6.180;2023-07-30T00:24:39;8.02;;;1.45;;
46429;SDS011;32131;53.454;-6.180;2023-07-30T00:27:08;4.68;;;1.50;;
46429;SDS011;32131;53.454;-6.180;2023-07-30T00:29:39;11.73;;;1.45;;
46429;SDS011;32131;53.454;-6.180;2023-07-30T00:32:10;7.15;;;1.05;;
46429;SDS011;32131;53.454;-6.180;2023-07-30T00:34:42;7.88;;;1.30;;
46429;SDS011;32131;53.454;-6.180;2023-07-30T00:37:11;6.90;;;1.23;;
46429;SDS011;32131;53.454;-6.180;2023-07-30T00:39:40;6.25;;;1.50;;
46429;SDS011;32131;53.454;-6.180;2023-07-30T00:42:12;9.43;;;1.27;;
46429;SDS011;32131;53.454;-6.180;2023-07-30T00:44:42;9.85;;;1.52;;
46429;SDS011;32131;53.454;-6.180;2023-07-30T00:47:12;9.45;;;0.95;;
46429;SDS011;32131;53.454;-6.180;2023-07-30T00:49:41;5.18;;;1.10;;
46429;SDS011;32131;53.454;-6.180;2023-07-30T00:52:09;11.48;;;1.60;;
46429;SDS011;32131;53.454;-6.180;2023-07-30T00:54:42;7.57;;;1.50;;
46429;SDS011;32131;53.454;-6.180;2023-07-30T00:57:11;8.00;;;1.40;;
46429;SDS011;32131;53.454;-6.180;2023-07-30T00:59:44;12.70;;;1.67;;
46429;SDS011;32131;53.454;-6.180;2023-07-30T01:02:16;7.70;;;1.40;;
46429;SDS011;32131;53.454;-6.180;2023-07-30T01:04:45;8.38;;;1.50;;
46429;SDS011;32131;53.454;-6.180;2023-07-30T01:07:15;6.10;;;1.30;;
46429;SDS011;32131;53.454;-6.180;2023-07-30T01:09:43;7.97;;;1.90;;
46429;SDS011;32131;53.454;-6.180;2023-07-30T01:12:12;7.47;;;1.60;;
46429;SDS011;32131;53.454;-6.180;2023-07-30T01:14:46;12.95;;;1.52;;
46429;SDS011;32131;53.454;-6.180;2023-07-30T01:17:16;5.55;;;1.50;;
46429;SDS011;32131;53.454;-6.180;2023-07-30T01:19:47;5.75;;;1.25;;
46429;SDS011;32131;53.454;-6.180;2023-07-30T01:22:22;6.18;;;1.42;;
46429;SDS011;32131;53.454;-6.180;2023-07-30T01:24:53;9.95;;;1.50;;
46429;SDS011;32131;53.454;-6.180;2023-07-30T01:27:23;8.80;;;1.60;;
46429;SDS011;32131;53.454;-6.180;2023-07-30T01:29:55;7.65;;;1.48;;
46429;SDS011;32131;53.454;-6.180;2023-07-30T01:32:32;6.68;;;1.27;;
46429;SDS011;32131;53.454;-6.180;2023-07-30T01:35:01;8.80;;;1.13;;
46429;SDS011;32131;53.454;-6.180;2023-07-30T01:37:34;7.93;;;1.45;;
46429;SDS011;32131;53.454;-6.180;2023-07-30T01:40:06;5.05;;;1.27;;
46429;SDS011;32131;53.454;-6.180;2023-07-30T01:42:36;7.53;;;1.63;;
46429;SDS011;32131;53.454;-6.180;2023-07-30T01:45:05;7.20;;;1.38;;
46429;SDS011;32131;53.454;-6.180;2023-07-30T01:47:35;9.90;;;1.50;;
46429;SDS011;32131;53.454;-6.180;2023-07-30T01:50:04;11.75;;;1.45;;
46429;SDS011;32131;53.454;-6.180;2023-07-30T01:55:04;7.22;;;1.33;;
46429;SDS011;32131;53.454;-6.180;2023-07-30T01:57:33;8.32;;;1.38;;
46429;SDS011;32131;53.454;-6.180;2023-07-30T02:00:02;3.22;;;0.82;;
46429;SDS011;32131;53.454;-6.180;2023-07-30T02:02:30;5.68;;;0.93;;
46429;SDS011;32131;53.454;-6.180;2023-07-30T02:05:02;10.23;;;1.30;;
46429;SDS011;32131;53.454;-6.180;2023-07-30T02:07:32;7.68;;;1.27;;
46429;SDS011;32131;53.454;-6.180;2023-07-30T02:10:02;7.28;;;1.75;;
46429;SDS011;32131;53.454;-6.180;2023-07-30T02:14:59;6.38;;;1.00;;
46429;SDS011;32131;53.454;-6.180;2023-07-30T02:17:27;5.80;;;1.20;;
46429;SDS011;32131;53.454;-6.180;2023-07-30T02:19:55;5.60;;;1.33;;
46429;SDS011;32131;53.454;-6.180;2023-07-30T02:22:24;7.60;;;1.05;;
46429;SDS011;32131;53.454;-6.180;2023-07-30T02:24:53;6.63;;;1.20;;
46429;SDS011;32131;53.454;-6.180;2023-07-30T02:27:25;6.07;;;0.68;;
46429;SDS011;32131;53.454;-6.180;2023-07-30T02:29:53;4.40;;;0.98;;
46429;SDS011;32131;53.454;-6.180;2023-07-30T02:32:22;6.68;;;1.17;;
46429;SDS011;32131;53.454;-6.180;2023-07-30T02:34:50;5.35;;;1.35;;
46429;SDS011;32131;53.454;-6.180;2023-07-30T02:37:18;3.63;;;0.98;;
46429;SDS011;32131;53.454;-6.180;2023-07-30T02:39:47;10.48;;;0.80;;
46429;SDS011;32131;53.454;-6.180;2023-07-30T02:42:15;5.68;;;1.08;;
46429;SDS011;32131;53.454;-6.180;2023-07-30T02:44:46;3.30;;;1.02;;
46429;SDS011;32131;53.454;-6.180;2023-07-30T02:47:15;5.35;;;1.00;;
46429;SDS011;32131;53.454;-6.180;2023-07-30T02:49:43;2.33;;;0.75;;
46429;SDS011;32131;53.454;-6.180;2023-07-30T02:52:17;7.20;;;1.58;;
46429;SDS011;32131;53.454;-6.180;2023-07-30T02:54:46;16.10;;;1.77;;
46429;SDS011;32131;53.454;-6.180;2023-07-30T02:57:15;4.60;;;0.90;;
46429;SDS011;32131;53.454;-6.180;2023-07-30T02:59:46;3.13;;;1.08;;
46429;SDS011;32131;53.454;-6.180;2023-07-30T03:02:16;3.53;;;1.10;;
46429;SDS011;32131;53.454;-6.180;2023-07-30T03:04:47;2.63;;;0.82;;
46429;SDS011;32131;53.454;-6.180;2023-07-30T03:07:16;9.10;;;1.48;;
46429;SDS011;32131;53.454;-6.180;2023-07-30T03:09:45;6.00;;;0.95;;
46429;SDS011;32131;53.454;-6.180;2023-07-30T03:12:13;8.30;;;1.45;;
46429;SDS011;32131;53.454;-6.180;2023-07-30T03:14:42;7.95;;;1.10;;
46429;SDS011;32131;53.454;-6.180;2023-07-30T03:17:11;7.65;;;1.00;;
46429;SDS011;32131;53.454;-6.180;2023-07-30T03:19:42;10.77;;;1.35;;
46429;SDS011;32131;53.454;-6.180;2023-07-30T03:22:10;6.97;;;1.25;;
46429;SDS011;32131;53.454;-6.180;2023-07-30T03:24:38;8.50;;;1.17;;
46429;SDS011;32131;53.454;-6.180;2023-07-30T03:27:07;7.32;;;0.93;;
46429;SDS011;32131;53.454;-6.180;2023-07-30T03:29:35;5.72;;;1.48;;
46429;SDS011;32131;53.454;-6.180;2023-07-30T03:32:06;5.25;;;1.10;;
46429;SDS011;32131;53.454;-6.180;2023-07-30T03:34:38;3.92;;;0.98;;
46429;SDS011;32131;53.454;-6.180;2023-07-30T03:37:07;6.60;;;1.25;;
46429;SDS011;32131;53.454;-6.180;2023-07-30T03:39:35;7.95;;;0.90;;
46429;SDS011;32131;53.454;-6.180;2023-07-30T03:42:05;2.60;;;1.02;;
46429;SDS011;32131;53.454;-6.180;2023-07-30T03:44:34;7.97;;;1.20;;
46429;SDS011;32131;53.454;-6.180;2023-07-30T03:47:02;4.65;;;1.15;;
46429;SDS011;32131;53.454;-6.180;2023-07-30T03:49:31;5.05;;;0.95;;
46429;SDS011;32131;53.454;-6.180;2023-07-30T03:52:01;6.28;;;1.33;;
46429;SDS011;32131;53.454;-6.180;2023-07-30T03:54:43;4.90;;;1.50;;
46429;SDS011;32131;53.454;-6.180;2023-07-30T03:57:12;2.53;;;0.80;;
46429;SDS011;32131;53.454;-6.180;2023-07-30T03:59:41;5.38;;;1.35;;
46429;SDS011;32131;53.454;-6.180;2023-07-30T04:02:09;5.85;;;1.00;;
46429;SDS011;32131;53.454;-6.180;2023-07-30T04:04:42;4.47;;;1.05;;
46429;SDS011;32131;53.454;-6.180;2023-07-30T04:07:12;6.85;;;0.85;;
46429;SDS011;32131;53.454;-6.180;2023-07-30T04:09:40;4.03;;;1.02;;
46429;SDS011;32131;53.454;-6.180;2023-07-30T04:12:11;3.63;;;1.08;;
46429;SDS011;32131;53.454;-6.180;2023-07-30T04:14:40;5.07;;;1.00;;
46429;SDS011;32131;53.454;-6.180;2023-07-30T04:17:08;4.55;;;0.65;;
46429;SDS011;32131;53.454;-6.180;2023-07-30T04:19:36;8.02;;;1.33;;
46429;SDS011;32131;53.454;-6.180;2023-07-30T04:22:05;6.13;;;0.90;;
46429;SDS011;32131;53.454;-6.180;2023-07-30T04:24:35;3.72;;;0.90;;
46429;SDS011;32131;53.454;-6.180;2023-07-30T04:27:03;9.77;;;1.23;;
46429;SDS011;32131;53.454;-6.180;2023-07-30T04:29:32;3.90;;;1.00;;
46429;SDS011;32131;53.454;-6.180;2023-07-30T04:32:00;7.75;;;1.17;;
46429;SDS011;32131;53.454;-6.180;2023-07-30T04:34:32;3.72;;;0.70;;
46429;SDS011;32131;53.454;-6.180;2023-07-30T04:37:00;6.63;;;1.10;;
46429;SDS011;32131;53.454;-6.180;2023-07-30T04:39:29;8.82;;;1.38;;
46429;SDS011;32131;53.454;-6.180;2023-07-30T04:42:02;5.88;;;1.10;;
46429;SDS011;32131;53.454;-6.180;2023-07-30T04:44:31;5.93;;;1.15;;
46429;SDS011;32131;53.454;-6.180;2023-07-30T04:47:00;4.45;;;0.93;;
46429;SDS011;32131;53.454;-6.180;2023-07-30T04:49:29;4.10;;;0.90;;
46429;SDS011;32131;53.454;-6.180;2023-07-30T04:51:58;6.45;;;1.50;;
46429;SDS011;32131;53.454;-6.180;2023-07-30T04:54:27;5.72;;;0.90;;
46429;SDS011;32131;53.454;-6.180;2023-07-30T04:56:55;9.30;;;1.33;;
46429;SDS011;32131;53.454;-6.180;2023-07-30T04:59:25;11.82;;;1.52;;
46429;SDS011;32131;53.454;-6.180;2023-07-30T05:01:55;5.82;;;0.98;;
46429;SDS011;32131;53.454;-6.180;2023-07-30T05:04:24;9.35;;;1.40;;
46429;SDS011;32131;53.454;-6.180;2023-07-30T05:06:52;13.85;;;1.55;;
46429;SDS011;32131;53.454;-6.180;2023-07-30T05:09:21;5.70;;;1.33;;
46429;SDS011;32131;53.454;-6.180;2023-07-30T05:11:49;7.03;;;1.08;;
46429;SDS011;32131;53.454;-6.180;2023-07-30T05:14:17;2.63;;;0.82;;
46429;SDS011;32131;53.454;-6.180;2023-07-30T05:16:49;4.57;;;0.70;;
46429;SDS011;32131;53.454;-6.180;2023-07-30T05:19:17;4.03;;;0.75;;
46429;SDS011;32131;53.454;-6.180;2023-07-30T05:21:46;5.80;;;1.10;;
46429;SDS011;32131;53.454;-6.180;2023-07-30T05:24:14;6.47;;;1.27;;
46429;SDS011;32131;53.454;-6.180;2023-07-30T05:26:43;8.05;;;1.00;;
46429;SDS011;32131;53.454;-6.180;2023-07-30T05:29:12;4.40;;;0.80;;
46429;SDS011;32131;53.454;-6.180;2023-07-30T05:31:40;6.93;;;0.93;;
46429;SDS011;32131;53.454;-6.180;2023-07-30T05:34:15;6.35;;;0.80;;
46429;SDS011;32131;53.454;-6.180;2023-07-30T05:36:43;4.30;;;1.00;;
46429;SDS011;32131;53.454;-6.180;2023-07-30T05:39:12;5.35;;;1.10;;
46429;SDS011;32131;53.454;-6.180;2023-07-30T05:41:43;6.05;;;1.05;;
46429;SDS011;32131;53.454;-6.180;2023-07-30T05:44:13;4.60;;;1.25;;
46429;SDS011;32131;53.454;-6.180;2023-07-30T05:46:41;5.35;;;1.23;;
46429;SDS011;32131;53.454;-6.180;2023-07-30T05:49:15;7.53;;;1.33;;
46429;SDS011;32131;53.454;-6.180;2023-07-30T05:51:44;6.65;;;1.02;;
46429;SDS011;32131;53.454;-6.180;2023-07-30T05:54:13;7.55;;;0.93;;
46429;SDS011;32131;53.454;-6.180;2023-07-30T05:56:41;4.57;;;0.95;;
46429;SDS011;32131;53.454;-6.180;2023-07-30T05:59:12;3.65;;;0.70;;
46429;SDS011;32131;53.454;-6.180;2023-07-30T06:01:45;1.40;;;0.45;;
46429;SDS011;32131;53.454;-6.180;2023-07-30T06:04:15;4.60;;;0.70;;
46429;SDS011;32131;53.454;-6.180;2023-07-30T06:06:45;4.18;;;0.93;;
46429;SDS011;32131;53.454;-6.180;2023-07-30T06:09:15;4.45;;;0.98;;
46429;SDS011;32131;53.454;-6.180;2023-07-30T06:11:44;1.95;;;0.70;;
46429;SDS011;32131;53.454;-6.180;2023-07-30T06:14:12;4.00;;;0.90;;
46429;SDS011;32131;53.454;-6.180;2023-07-30T06:16:41;6.30;;;1.17;;
46429;SDS011;32131;53.454;-6.180;2023-07-30T06:19:15;4.93;;;0.82;;
46429;SDS011;32131;53.454;-6.180;2023-07-30T06:21:44;5.88;;;0.88;;
46429;SDS011;32131;53.454;-6.180;2023-07-30T06:24:12;4.68;;;0.60;;
46429;SDS011;32131;53.454;-6.180;2023-07-30T06:26:40;3.03;;;0.50;;
46429;SDS011;32131;53.454;-6.180;2023-07-30T06:29:09;6.85;;;0.88;;
46429;SDS011;32131;53.454;-6.180;2023-07-30T06:31:37;4.13;;;0.68;;
46429;SDS011;32131;53.454;-6.180;2023-07-30T06:34:11;1.15;;;0.50;;
46429;SDS011;32131;53.454;-6.180;2023-07-30T06:36:41;2.30;;;0.75;;
46429;SDS011;32131;53.454;-6.180;2023-07-30T06:39:10;2.13;;;0.70;;
46429;SDS011;32131;53.454;-6.180;2023-07-30T06:41:39;2.25;;;0.52;;
46429;SDS011;32131;53.454;-6.180;2023-07-30T06:44:13;2.50;;;0.90;;
46429;SDS011;32131;53.454;-6.180;2023-07-30T06:46:43;1.45;;;0.40;;
46429;SDS011;32131;53.454;-6.180;2023-07-30T06:52:42;1.48;;;0.50;;
46429;SDS011;32131;53.454;-6.180;2023-07-30T06:55:11;1.58;;;0.35;;
46429;SDS011;32131;53.454;-6.180;2023-07-30T06:57:41;5.70;;;0.60;;
46429;SDS011;32131;53.454;-6.180;2023-07-30T07:00:14;2.95;;;0.85;;
46429;SDS011;32131;53.454;-6.180;2023-07-30T07:02:54;3.65;;;0.50;;
46429;SDS011;32131;53.454;-6.180;2023-07-30T07:08:30;2.53;;;0.50;;
46429;SDS011;32131;53.454;-6.180;2023-07-30T07:11:00;1.85;;;0.52;;
46429;SDS011;32131;53.454;-6.180;2023-07-30T07:13:29;1.35;;;0.43;;
46429;SDS011;32131;53.454;-6.180;2023-07-30T07:15:57;5.28;;;0.60;;
46429;SDS011;32131;53.454;-6.180;2023-07-30T07:18:25;1.98;;;0.52;;
46429;SDS011;32131;53.454;-6.180;2023-07-30T07:20:54;1.42;;;0.57;;
46429;SDS011;32131;53.454;-6.180;2023-07-30T07:23:22;2.28;;;0.63;;
46429;SDS011;32131;53.454;-6.180;2023-07-30T07:25:52;2.95;;;0.80;;
46429;SDS011;32131;53.454;-6.180;2023-07-30T07:28:21;1.92;;;0.57;;
46429;SDS011;32131;53.454;-6.180;2023-07-30T07:30:49;8.07;;;0.73;;
46429;SDS011;32131;53.454;-6.180;2023-07-30T07:33:18;4.57;;;0.52;;
46429;SDS011;32131;53.454;-6.180;2023-07-30T07:35:47;2.88;;;0.70;;
46429;SDS011;32131;53.454;-6.180;2023-07-30T07:38:15;1.52;;;0.40;;
46429;SDS011;32131;53.454;-6.180;2023-07-30T07:40:44;2.03;;;0.52;;
46429;SDS011;32131;53.454;-6.180;2023-07-30T07:43:14;9.25;;;0.63;;
46429;SDS011;32131;53.454;-6.180;2023-07-30T07:45:42;2.78;;;0.50;;
46429;SDS011;32131;53.454;-6.180;2023-07-30T07:48:10;3.55;;;0.68;;
46429;SDS011;32131;53.454;-6.180;2023-07-30T07:50:41;2.35;;;0.60;;
46429;SDS011;32131;53.454;-6.180;2023-07-30T07:53:09;4.75;;;0.60;;
46429;SDS011;32131;53.454;-6.180;2023-07-30T07:55:38;4.10;;;0.90;;
46429;SDS011;32131;53.454;-6.180;2023-07-30T07:58:07;2.63;;;0.50;;
46429;SDS011;32131;53.454;-6.180;2023-07-30T08:00:37;7.28;;;0.73;;
46429;SDS011;32131;53.454;-6.180;2023-07-30T08:03:08;2.70;;;0.43;;
46429;SDS011;32131;53.454;-6.180;2023-07-30T08:05:36;3.90;;;0.80;;
46429;SDS011;32131;53.454;-6.180;2023-07-30T08:08:04;2.20;;;0.75;;
46429;SDS011;32131;53.454;-6.180;2023-07-30T08:10:37;5.57;;;0.85;;
46429;SDS011;32131;53.454;-6.180;2023-07-30T08:13:10;4.75;;;0.60;;
46429;SDS011;32131;53.454;-6.180;2023-07-30T08:15:40;5.20;;;0.75;;
46429;SDS011;32131;53.454;-6.180;2023-07-30T08:18:08;1.60;;;0.30;;
46429;SDS011;32131;53.454;-6.180;2023-07-30T08:20:38;4.55;;;0.77;;
46429;SDS011;32131;53.454;-6.180;2023-07-30T08:23:07;2.92;;;0.70;;
46429;SDS011;32131;53.454;-6.180;2023-07-30T08:25:35;5.18;;;0.60;;
46429;SDS011;32131;53.454;-6.180;2023-07-30T08:28:06;8.65;;;0.90;;
46429;SDS011;32131;53.454;-6.180;2023-07-30T08:30:36;2.70;;;0.70;;
46429;SDS011;32131;53.454;-6.180;2023-07-30T08:33:06;3.08;;;0.35;;
46429;SDS011;32131;53.454;-6.180;2023-07-30T08:35:36;4.40;;;0.85;;
46429;SDS011;32131;53.454;-6.180;2023-07-30T08:38:05;0.73;;;0.30;;
46429;SDS011;32131;53.454;-6.180;2023-07-30T08:40:34;2.42;;;0.60;;
46429;SDS011;32131;53.454;-6.180;2023-07-30T08:43:06;1.25;;;0.38;;
46429;SDS011;32131;53.454;-6.180;2023-07-30T08:45:35;3.20;;;0.57;;
46429;SDS011;32131;53.454;-6.180;2023-07-30T08:48:04;2.20;;;0.50;;
46429;SDS011;32131;53.454;-6.180;2023-07-30T08:53:02;1.30;;;0.32;;
46429;SDS011;32131;53.454;-6.180;2023-07-30T08:55:33;2.10;;;0.47;;
46429;SDS011;32131;53.454;-6.180;2023-07-30T09:00:48;1.52;;;0.20;;
46429;SDS011;32131;53.454;-6.180;2023-07-30T09:03:20;4.80;;;0.52;;
46429;SDS011;32131;53.454;-6.180;2023-07-30T09:05:50;4.35;;;0.60;;
46429;SDS011;32131;53.454;-6.180;2023-07-30T09:08:19;1.65;;;0.40;;
46429;SDS011;32131;53.454;-6.180;2023-07-30T09:10:50;1.92;;;0.68;;
46429;SDS011;32131;53.454;-6.180;2023-07-30T09:13:21;1.40;;;0.40;;
46429;SDS011;32131;53.454;-6.180;2023-07-30T09:15:50;1.38;;;0.40;;
46429;SDS011;32131;53.454;-6.180;2023-07-30T09:18:20;3.78;;;0.70;;
46429;SDS011;32131;53.454;-6.180;2023-07-30T09:20:49;1.90;;;0.50;;
46429;SDS011;32131;53.454;-6.180;2023-07-30T09:23:17;0.95;;;0.30;;
46429;SDS011;32131;53.454;-6.180;2023-07-30T09:25:47;0.80;;;0.22;;
46429;SDS011;32131;53.454;-6.180;2023-07-30T09:28:18;2.55;;;0.30;;
46429;SDS011;32131;53.454;-6.180;2023-07-30T09:30:48;2.00;;;0.75;;
46429;SDS011;32131;53.454;-6.180;2023-07-30T09:33:18;5.93;;;0.75;;
46429;SDS011;32131;53.454;-6.180;2023-07-30T09:35:49;2.22;;;0.80;;
46429;SDS011;32131;53.454;-6.180;2023-07-30T09:38:20;2.78;;;0.70;;
46429;SDS011;32131;53.454;-6.180;2023-07-30T09:40:48;3.05;;;0.63;;
46429;SDS011;32131;53.454;-6.180;2023-07-30T09:43:17;2.45;;;0.30;;
46429;SDS011;32131;53.454;-6.180;2023-07-30T09:45:46;1.10;;;0.30;;
46429;SDS011;32131;53.454;-6.180;2023-07-30T09:48:15;6.13;;;0.40;;
46429;SDS011;32131;53.454;-6.180;2023-07-30T09:50:45;2.53;;;0.43;;
46429;SDS011;32131;53.454;-6.180;2023-07-30T09:53:13;2.22;;;0.38;;
46429;SDS011;32131;53.454;-6.180;2023-07-30T09:55:44;2.45;;;0.52;;
46429;SDS011;32131;53.454;-6.180;2023-07-30T09:58:16;3.17;;;0.57;;
46429;SDS011;32131;53.454;-6.180;2023-07-30T10:00:44;6.43;;;0.40;;
46429;SDS011;32131;53.454;-6.180;2023-07-30T10:03:13;5.55;;;0.47;;
46429;SDS011;32131;53.454;-6.180;2023-07-30T10:05:44;2.92;;;0.50;;
46429;SDS011;32131;53.454;-6.180;2023-07-30T10:08:17;2.03;;;0.57;;
46429;SDS011;32131;53.454;-6.180;2023-07-30T10:10:49;3.60;;;0.57;;
46429;SDS011;32131;53.454;-6.180;2023-07-30T10:13:22;2.42;;;0.63;;
46429;SDS011;32131;53.454;-6.180;2023-07-30T10:15:50;2.28;;;0.60;;
46429;SDS011;32131;53.454;-6.180;2023-07-30T10:18:19;1.40;;;0.65;;
46429;SDS011;32131;53.454;-6.180;2023-07-30T10:20:53;3.08;;;0.50;;
46429;SDS011;32131;53.454;-6.180;2023-07-30T10:23:26;3.67;;;0.52;;
46429;SDS011;32131;53.454;-6.180;2023-07-30T10:25:55;3.95;;;0.77;;
46429;SDS011;32131;53.454;-6.180;2023-07-30T10:28:27;2.22;;;0.60;;
46429;SDS011;32131;53.454;-6.180;2023-07-30T10:31:00;4.07;;;0.88;;
46429;SDS011;32131;53.454;-6.180;2023-07-30T10:33:44;2.15;;;0.63;;
46429;SDS011;32131;53.454;-6.180;2023-07-30T10:36:18;3.25;;;0.80;;
46429;SDS011;32131;53.454;-6.180;2023-07-30T10:39:00;2.38;;;0.60;;
46429;SDS011;32131;53.454;-6.180;2023-07-30T10:41:37;6.47;;;0.93;;
46429;SDS011;32131;53.454;-6.180;2023-07-30T10:44:17;3.72;;;1.00;;
46429;SDS011;32131;53.454;-6.180;2023-07-30T10:46:46;6.55;;;1.42;;
46429;SDS011;32131;53.454;-6.180;2023-07-30T10:49:14;6.13;;;1.20;;
46429;SDS011;32131;53.454;-6.180;2023-07-30T10:51:44;5.43;;;1.05;;
46429;SDS011;32131;53.454;-6.180;2023-07-30T10:54:12;2.78;;;0.88;;
46429;SDS011;32131;53.454;-6.180;2023-07-30T10:56:42;2.95;;;1.02;;
46429;SDS011;32131;53.454;-6.180;2023-07-30T10:59:38;5.80;;;1.40;;
46429;SDS011;32131;53.454;-6.180;2023-07-30T11:02:10;13.57;;;1.40;;
46429;SDS011;32131;53.454;-6.180;2023-07-30T11:04:39;5.47;;;1.30;;
46429;SDS011;32131;53.454;-6.180;2023-07-30T11:07:10;5.75;;;1.00;;
46429;SDS011;32131;53.454;-6.180;2023-07-30T11:09:44;10.00;;;1.45;;
46429;SDS011;32131;53.454;-6.180;2023-07-30T11:12:14;4.40;;;1.02;;
46429;SDS011;32131;53.454;-6.180;2023-07-30T11:14:47;8.30;;;1.65;;
46429;SDS011;32131;53.454;-6.180;2023-07-30T11:17:18;1.75;;;0.93;;
46429;SDS011;32131;53.454;-6.180;2023-07-30T11:19:47;2.88;;;0.60;;
46429;SDS011;32131;53.454;-6.180;2023-07-30T11:22:18;5.25;;;0.90;;
46429;SDS011;32131;53.454;-6.180;2023-07-30T11:25:00;2.03;;;0.60;;
46429;SDS011;32131;53.454;-6.180;2023-07-30T11:27:44;7.65;;;1.05;;
46429;SDS011;32131;53.454;-6.180;2023-07-30T11:30:13;3.42;;;1.20;;
46429;SDS011;32131;53.454;-6.180;2023-07-30T11:32:41;2.40;;;0.93;;
46429;SDS011;32131;53.454;-6.180;2023-07-30T11:35:11;3.45;;;1.13;;
46429;SDS011;32131;53.454;-6.180;2023-07-30T11:37:45;2.63;;;1.15;;
46429;SDS011;32131;53.454;-6.180;2023-07-30T11:40:37;3.00;;;0.90;;
46429;SDS011;32131;53.454;-6.180;2023-07-30T11:43:05;3.10;;;0.98;;
46429;SDS011;32131;53.454;-6.180;2023-07-30T11:46:06;2.22;;;0.93;;
46429;SDS011;32131;53.454;-6.180;2023-07-30T11:48:44;10.43;;;1.08;;
46429;SDS011;32131;53.454;-6.180;2023-07-30T11:57:04;4.18;;;1.10;;
46429;SDS011;32131;53.454;-6.180;2023-07-30T12:02:49;4.28;;;1.10;;
46429;SDS011;32131;53.454;-6.180;2023-07-30T12:05:50;2.78;;;0.80;;
46429;SDS011;32131;53.454;-6.180;2023-07-30T12:08:25;5.63;;;1.08;;
46429;SDS011;32131;53.454;-6.180;2023-07-30T12:11:24;4.25;;;1.00;;
46429;SDS011;32131;53.454;-6.180;2023-07-30T12:14:10;2.13;;;0.80;;
46429;SDS011;32131;53.454;-6.180;2023-07-30T12:16:41;3.53;;;1.10;;
46429;SDS011;32131;53.454;-6.180;2023-07-30T12:19:09;4.38;;;0.70;;
46429;SDS011;32131;53.454;-6.180;2023-07-30T12:21:38;4.75;;;0.93;;
46429;SDS011;32131;53.454;-6.180;2023-07-30T12:24:06;6.60;;;1.17;;
46429;SDS011;32131;53.454;-6.180;2023-07-30T12:26:36;4.22;;;1.13;;
46429;SDS011;32131;53.454;-6.180;2023-07-30T12:29:04;3.75;;;1.13;;
46429;SDS011;32131;53.454;-6.180;2023-07-30T12:31:32;2.72;;;1.00;;
46429;SDS011;32131;53.454;-6.180;2023-07-30T12:34:01;2.92;;;1.15;;
46429;SDS011;32131;53.454;-6.180;2023-07-30T12:36:29;4.03;;;0.93;;
46429;SDS011;32131;53.454;-6.180;2023-07-30T12:38:57;2.78;;;0.90;;
46429;SDS011;32131;53.454;-6.180;2023-07-30T12:41:25;2.17;;;0.70;;
46429;SDS011;32131;53.454;-6.180;2023-07-30T12:43:57;3.00;;;0.80;;
46429;SDS011;32131;53.454;-6.180;2023-07-30T12:46:27;3.38;;;0.90;;
46429;SDS011;32131;53.454;-6.180;2023-07-30T12:48:56;3.20;;;0.95;;
46429;SDS011;32131;53.454;-6.180;2023-07-30T12:51:29;2.00;;;0.70;;
46429;SDS011;32131;53.454;-6.180;2023-07-30T12:53:57;1.92;;;0.52;;
46429;SDS011;32131;53.454;-6.180;2023-07-30T12:56:28;2.13;;;0.50;;
46429;SDS011;32131;53.454;-6.180;2023-07-30T13:24:30;4.47;;;0.68;;
46429;SDS011;32131;53.454;-6.180;2023-07-30T13:26:59;1.45;;;0.70;;
46429;SDS011;32131;53.454;-6.180;2023-07-30T13:29:28;2.85;;;0.82;;
46429;SDS011;32131;53.454;-6.180;2023-07-30T13:31:56;1.58;;;0.73;;
46429;SDS011;32131;53.454;-6.180;2023-07-30T13:34:24;1.48;;;0.73;;
46429;SDS011;32131;53.454;-6.180;2023-07-30T13:36:53;2.08;;;0.65;;
46429;SDS011;32131;53.454;-6.180;2023-07-30T13:39:21;1.83;;;0.95;;
46429;SDS011;32131;53.454;-6.180;2023-07-30T13:41:50;1.38;;;0.50;;
46429;SDS011;32131;53.454;-6.180;2023-07-30T13:44:19;6.50;;;1.05;;
46429;SDS011;32131;53.454;-6.180;2023-07-30T13:46:47;2.78;;;1.05;;
46429;SDS011;32131;53.454;-6.180;2023-07-30T13:49:17;2.58;;;0.95;;
46429;SDS011;32131;53.454;-6.180;2023-07-30T13:51:45;2.55;;;0.63;;
46429;SDS011;32131;53.454;-6.180;2023-07-30T13:54:13;1.45;;;0.73;;
46429;SDS011;32131;53.454;-6.180;2023-07-30T13:56:41;1.23;;;0.55;;
46429;SDS011;32131;53.454;-6.180;2023-07-30T13:59:11;2.05;;;0.70;;
46429;SDS011;32131;53.454;-6.180;2023-07-30T14:01:39;3.53;;;0.80;;
46429;SDS011;32131;53.454;-6.180;2023-07-30T14:04:07;1.33;;;0.68;;
46429;SDS011;32131;53.454;-6.180;2023-07-30T14:06:36;2.90;;;0.60;;
46429;SDS011;32131;53.454;-6.180;2023-07-30T14:09:04;1.70;;;0.70;;
46429;SDS011;32131;53.454;-6.180;2023-07-30T14:11:33;3.92;;;1.02;;
46429;SDS011;32131;53.454;-6.180;2023-07-30T14:14:02;1.90;;;0.70;;
46429;SDS011;32131;53.454;-6.180;2023-07-30T14:16:33;8.45;;;0.98;;
46429;SDS011;32131;53.454;-6.180;2023-07-30T14:19:01;3.72;;;1.13;;
46429;SDS011;32131;53.454;-6.180;2023-07-30T14:21:30;2.67;;;0.90;;
46429;SDS011;32131;53.454;-6.180;2023-07-30T14:23:58;3.10;;;1.02;;
46429;SDS011;32131;53.454;-6.180;2023-07-30T14:26:26;5.82;;;0.88;;
46429;SDS011;32131;53.454;-6.180;2023-07-30T14:28:54;3.20;;;1.27;;
46429;SDS011;32131;53.454;-6.180;2023-07-30T14:31:23;3.20;;;0.88;;
46429;SDS011;32131;53.454;-6.180;2023-07-30T14:33:52;3.35;;;1.13;;
46429;SDS011;32131;53.454;-6.180;2023-07-30T14:36:22;1.85;;;0.70;;
46429;SDS011;32131;53.454;-6.180;2023-07-30T14:38:50;2.67;;;1.00;;
46429;SDS011;32131;53.454;-6.180;2023-07-30T14:41:18;4.88;;;1.25;;
46429;SDS011;32131;53.454;-6.180;2023-07-30T14:43:47;6.65;;;1.20;;
46429;SDS011;32131;53.454;-6.180;2023-07-30T14:46:15;4.18;;;1.30;;
46429;SDS011;32131;53.454;-6.180;2023-07-30T14:48:43;1.65;;;0.85;;
46429;SDS011;32131;53.454;-6.180;2023-07-30T14:51:13;3.55;;;1.23;;
46429;SDS011;32131;53.454;-6.180;2023-07-30T14:53:43;3.10;;;1.23;;
46429;SDS011;32131;53.454;-6.180;2023-07-30T14:56:11;8.75;;;1.35;;
46429;SDS011;32131;53.454;-6.180;2023-07-30T14:58:39;4.03;;;0.93;;
46429;SDS011;32131;53.454;-6.180;2023-07-30T15:01:08;2.22;;;1.00;;
46429;SDS011;32131;53.454;-6.180;2023-07-30T15:03:38;2.88;;;0.77;;
46429;SDS011;32131;53.454;-6.180;2023-07-30T15:06:06;4.68;;;1.10;;
46429;SDS011;32131;53.454;-6.180;2023-07-30T15:08:36;4.47;;;0.82;;
46429;SDS011;32131;53.454;-6.180;2023-07-30T15:11:05;3.50;;;1.30;;
46429;SDS011;32131;53.454;-6.180;2023-07-30T15:13:34;1.83;;;0.50;;
46429;SDS011;32131;53.454;-6.180;2023-07-30T15:16:02;3.35;;;0.98;;
46429;SDS011;32131;53.454;-6.180;2023-07-30T15:18:31;5.30;;;1.00;;
46429;SDS011;32131;53.454;-6.180;2023-07-30T15:20:59;4.47;;;1.13;;
46429;SDS011;32131;53.454;-6.180;2023-07-30T15:23:28;2.03;;;0.80;;
46429;SDS011;32131;53.454;-6.180;2023-07-30T15:25:57;2.13;;;0.70;;
46429;SDS011;32131;53.454;-6.180;2023-07-30T15:28:25;3.88;;;0.75;;
46429;SDS011;32131;53.454;-6.180;2023-07-30T15:30:54;1.85;;;0.90;;
46429;SDS011;32131;53.454;-6.180;2023-07-30T15:33:24;5.93;;;1.10;;
46429;SDS011;32131;53.454;-6.180;2023-07-30T15:35:52;3.08;;;1.05;;
46429;SDS011;32131;53.454;-6.180;2023-07-30T15:38:20;2.15;;;1.00;;
46429;SDS011;32131;53.454;-6.180;2023-07-30T15:40:49;2.70;;;1.05;;
46429;SDS011;32131;53.454;-6.180;2023-07-30T15:43:19;2.20;;;0.88;;
46429;SDS011;32131;53.454;-6.180;2023-07-30T15:45:47;2.83;;;1.08;;
46429;SDS011;32131;53.454;-6.180;2023-07-30T15:48:15;1.27;;;0.88;;